Time;durP1;ratioP1;P1;durP2;ratioP2;P2;SDS_P1;SDS_P2;PMS_P1;PMS_P2;Temp;Humidity;BMP_temperature;BMP_pressure;BME280_temperature;BME280_humidity;BME280_pressure;Samples;Min_cycle;Max_cycle;Signal;HPM_P1;HPM_P2
2023/02/12 00:01:34;;;;;;;19.08;12.77;;;;;;;8.37;100.00;103771.88;5017693;28;20059;-64
2023/02/12 00:04:01;;;;;;;22.52;14.43;;;;;;;8.31;100.00;103775.59;5012788;28;20140;-64
2023/02/12 00:06:27;;;;;;;22.55;14.40;;;;;;;8.36;100.00;103770.16;5000361;28;20060;-64
2023/02/12 00:08:56;;;;;;;22.55;13.52;;;;;;;8.38;100.00;103770.09;5018964;28;20053;-64
2023/02/12 00:11:25;;;;;;;20.48;13.90;;;;;;;8.39;100.00;103764.81;5019793;28;20060;-66
2023/02/12 00:13:52;;;;;;;21.33;13.75;;;;;;;8.38;100.00;103772.72;5020910;28;20057;-65
2023/02/12 00:16:22;;;;;;;24.75;13.90;;;;;;;8.40;100.00;103776.97;5018929;28;20068;-64
2023/02/12 00:18:51;;;;;;;21.23;13.15;;;;;;;8.38;100.00;103776.19;5020200;28;20053;-66
2023/02/12 00:21:18;;;;;;;21.73;13.05;;;;;;;8.27;100.00;103779.22;5003268;28;20810;-64
2023/02/12 00:23:45;;;;;;;21.70;14.40;;;;;;;8.29;100.00;103780.03;5018653;28;20051;-64
2023/02/12 00:26:13;;;;;;;24.42;14.88;;;;;;;8.22;100.00;103775.09;5023959;28;20061;-65
2023/02/12 00:28:40;;;;;;;;;;;;;;;8.22;100.00;103767.25;5008696;28;20056;-64
2023/02/12 00:31:08;;;;;;;;;;;;;;;8.20;100.00;103763.84;4997059;28;20350;-65
2023/02/12 00:33:35;;;;;;;;;;;;;;;8.25;100.00;103772.34;5009850;28;19931;-65
2023/02/12 00:36:02;;;;;;;;;;;;;;;8.28;100.00;103762.63;5014765;28;20279;-65
2023/02/12 00:38:28;;;;;;;;;;;;;;;8.28;100.00;103773.06;5011873;28;19929;-64
2023/02/12 00:40:55;;;;;;;;;;;;;;;8.23;100.00;103775.03;5009060;28;19948;-65
2023/02/12 00:43:21;;;;;;;;;;;;;;;8.26;100.00;103769.66;5015314;28;19929;-66
2023/02/12 00:45:47;;;;;;;;;;;;;;;8.23;100.00;103768.94;5005342;28;20301;-64
2023/02/12 00:48:14;;;;;;;;;;;;;;;8.27;100.00;103771.38;5009894;28;20020;-65
2023/02/12 00:50:43;;;;;;;;;;;;;;;8.28;100.00;103778.31;5010920;28;20433;-64
2023/02/12 00:53:09;;;;;;;;;;;;;;;8.27;100.00;103773.13;5021402;28;20385;-64
2023/02/12 00:55:36;;;;;;;;;;;;;;;8.26;100.00;103772.28;5016538;28;19921;-64
2023/02/12 00:58:02;;;;;;;;;;;;;;;8.26;100.00;103772.28;5012319;28;19924;-64
2023/02/12 01:00:28;;;;;;;;;;;;;;;8.25;100.00;103772.34;5020264;28;19928;-65
2023/02/12 01:02:55;;;;;;;;;;;;;;;8.28;100.00;103765.22;5006864;28;19925;-66
2023/02/12 01:05:21;;;;;;;;;;;;;;;8.24;100.00;103770.66;5033893;28;19948;-66
2023/02/12 01:07:52;;;;;;;;;;;;;;;8.24;100.00;103778.50;5020017;28;20404;-65
2023/02/12 01:10:22;;;;;;;;;;;;;;;8.21;100.00;103779.47;5014069;28;19969;-64
2023/02/12 01:12:48;;;;;;;;;;;;;;;8.19;100.00;103776.03;5027410;28;19929;-66
2023/02/12 01:15:15;;;;;;;;;;;;;;;8.20;100.00;103766.44;5015015;28;19972;-65
2023/02/12 01:17:42;;;;;;;;;;;;;;;8.20;100.00;103772.53;5012263;28;19952;-65
2023/02/12 01:20:11;;;;;;;;;;;;;;;8.22;100.00;103769.84;5018053;28;19924;-66
2023/02/12 01:22:38;;;;;;;;;;;;;;;8.22;100.00;103772.47;5014018;28;19933;-65
2023/02/12 01:25:05;;;;;;;;;;;;;;;8.17;100.00;103772.63;5012260;28;19932;-65
2023/02/12 01:27:32;;;;;;;;;;;;;;;8.18;100.00;103776.97;5010145;28;20297;-64
2023/02/12 01:29:58;;;;;;;;;;;;;;;8.17;100.00;103777.00;5010884;28;19925;-66
2023/02/12 01:32:25;;;;;;;;;;;;;;;8.11;100.00;103772.84;5002936;28;19925;-64
2023/02/12 01:34:51;;;;;;;;;;;;;;;8.12;100.00;103775.44;5016025;28;19925;-66
2023/02/12 01:37:17;;;;;;;;;;;;;;;8.14;100.00;103787.59;5011090;28;19924;-65
2023/02/12 01:39:44;;;;;;;;;;;;;;;8.14;100.00;103778.00;5014677;28;19935;-66
2023/02/12 01:42:14;;;;;;;;;;;;;;;8.16;100.00;103770.09;5012174;28;20616;-64
2023/02/12 01:44:42;;;;;;;;;;;;;;;8.15;100.00;103773.59;4999432;28;19940;-65
2023/02/12 01:47:17;;;;;;;;;;;;;;;8.12;100.00;103778.03;5018676;28;19928;-64
2023/02/12 01:49:44;;;;;;;;;;;;;;;8.12;100.00;103775.44;5011391;28;19932;-63
2023/02/12 01:52:19;;;;;;;;;;;;;;;8.09;100.00;103765.06;5021507;28;19924;-64
2023/02/12 01:54:47;;;;;;;;;;;;;;;8.04;100.00;103772.25;5015834;28;19925;-64
2023/02/12 01:57:15;;;;;;;;;;;;;;;8.00;100.00;103775.88;5014689;28;19925;-64
2023/02/12 01:59:42;;;;;;;;;;;;;;;8.01;100.00;103784.56;5003232;28;20000;-64
2023/02/12 02:02:08;;;;;;;;;;;;;;;7.97;100.00;103773.38;5010260;28;19936;-64
2023/02/12 02:04:47;;;;;;;;;;;;;;;7.98;100.00;103769.88;5024347;28;19925;-65
2023/02/12 02:07:13;;;;;;;;;;;;;;;7.96;100.00;103768.19;5015920;28;20009;-64
2023/02/12 02:09:40;;;;;;;;;;;;;;;7.92;100.00;103760.50;5011962;28;19921;-64
2023/02/12 02:14:54;;;;;;;;;;;;;;;7.87;100.00;103764.19;5001932;28;19921;-65
2023/02/12 02:17:35;;;;;;;;;;;;;;;7.84;100.00;103765.16;5008096;28;19924;-64
2023/02/12 02:20:02;;;;;;;;;;;;;;;7.80;100.00;103767.91;5009754;28;20393;-65
2023/02/12 02:22:32;;;;;;;;;;;;;;;7.77;100.00;103765.44;5004987;28;19925;-65
2023/02/12 02:25:13;;;;;;;;;;;;;;;7.74;100.00;103758.53;5015815;28;19953;-64
2023/02/12 02:27:58;;;;;;;;;;;;;;;7.69;100.00;103758.72;5016425;28;19928;-66
2023/02/12 02:30:31;;;;;;;;;;;;;;;7.66;100.00;103755.34;5006490;28;20024;-65
2023/02/12 02:33:03;;;;;;;;;;;;;;;7.61;100.00;103767.75;5035106;28;19925;-65
2023/02/12 02:35:35;;;;;;;;;;;;;;;7.57;100.00;103761.78;5005259;28;19926;-65
2023/02/12 02:38:12;;;;;;;;;;;;;;;7.54;100.00;103756.66;5020919;28;20388;-64
2023/02/12 02:40:45;;;;;;;;;;;;;;;7.53;100.00;103747.97;4987965;28;19937;-64
2023/02/12 02:43:18;;;;;;;;;;;;;;;7.51;100.00;103752.41;5023433;28;19947;-64
2023/02/12 02:45:50;;;;;;;;;;;;;;;7.51;100.00;103743.72;5018863;28;20434;-65
2023/02/12 02:48:23;;;;;;;;;;;;;;;7.49;100.00;103745.53;5020703;28;19932;-64
2023/02/12 02:50:54;;;;;;;;;;;;;;;7.48;100.00;103744.66;5023756;28;19936;-64
2023/02/12 02:53:36;;;;;;;;;;;;;;;7.47;100.00;103742.97;5004053;28;19925;-65
2023/02/12 02:56:06;;;;;;;;;;;;;;;7.44;100.00;103747.44;5021005;28;20353;-65
2023/02/12 02:58:38;;;;;;;;;;;;;;;7.41;100.00;103745.81;5014585;28;19921;-64
2023/02/12 03:01:17;;;;;;;;;;;;;;;7.42;100.00;103744.03;5031578;28;19979;-65
2023/02/12 03:04:00;;;;;;;;;;;;;;;7.41;100.00;103743.19;5015905;28;19925;-64
2023/02/12 03:06:29;;;;;;;;;;;;;;;7.38;100.00;103747.66;5020631;28;20374;-63
2023/02/12 03:08:59;;;;;;;;;;;;;;;7.33;100.00;103745.19;5011240;28;20003;-65
2023/02/12 03:11:27;;;;;;;;;;;;;;;7.27;100.00;103745.41;5029165;28;19927;-64
2023/02/12 03:14:10;;;;;;;;;;;;;;;7.22;100.00;103748.19;5031857;28;19975;-63
2023/02/12 03:16:38;;;;;;;;;;;;;;;7.20;100.00;103754.38;5032450;28;19925;-64
2023/02/12 03:19:15;;;;;;;;;;;;;;;7.15;100.00;103748.44;5027692;28;20131;-64
2023/02/12 03:21:42;;;;;;;;;;;;;;;7.14;100.00;103745.00;5009633;28;19925;-63
2023/02/12 03:24:34;;;;;;;;;;;;;;;7.13;100.00;103743.28;5003939;28;19921;-64
2023/02/12 03:27:04;;;;;;;;;;;;;;;7.14;100.00;103750.22;5012276;28;19952;-64
2023/02/12 03:29:31;;;;;;;;;;;;;;;7.13;100.00;103749.38;5014010;28;20391;-65
2023/02/12 03:32:13;;;;;;;;;;;;;;;7.15;100.00;103749.28;5013545;28;20301;-64
2023/02/12 03:34:39;;;;;;;;;;;;;;;7.16;100.00;103752.78;5013850;28;19933;-64
2023/02/12 03:37:11;;;;;;;;;;;;;;;7.15;100.00;103741.47;5000140;28;20424;-64
2023/02/12 03:39:55;;;;;;;;;;;;;;;7.15;100.00;103744.06;5027032;28;19932;-64
2023/02/12 03:42:26;;;;;;;;;;;;;;;7.15;100.00;103745.84;5019363;28;20278;-66
2023/02/12 03:44:56;;;;;;;;;;;;;;;7.15;100.00;103745.84;5011802;28;19936;-66
2023/02/12 03:47:26;;;;;;;;;;;;;;;7.16;100.00;103750.16;5013769;28;19925;-66
2023/02/12 03:50:02;;;;;;;;;;;;;;;7.17;100.00;103757.06;5014810;28;20378;-66
2023/02/12 03:52:29;;;;;;;;;;;;;;;7.17;100.00;103751.84;5019469;28;19924;-65
2023/02/12 03:54:55;;;;;;;;;;;;;;;7.16;100.00;103761.47;5017116;28;19925;-66
2023/02/12 03:57:29;;;;;;;;;;;;;;;7.16;100.00;103758.00;5025933;28;19928;-67
2023/02/12 04:00:00;;;;;;;;;;;;;;;7.15;100.00;103759.72;5013941;28;20447;-66
2023/02/12 04:02:26;;;;;;;;;;;;;;;7.13;100.00;103758.94;5020178;28;20714;-66
2023/02/12 04:04:53;;;;;;;;;;;;;;;7.08;100.00;103761.72;5013969;28;19932;-66
2023/02/12 04:07:19;;;;;;;;;;;;;;;7.07;100.00;103759.16;5020334;28;19935;-66
2023/02/12 04:09:46;;;;;;;;;;;;;;;7.04;100.00;103765.34;5021896;28;19925;-66
2023/02/12 04:12:12;;;;;;;;;;;;;;;7.04;100.00;103767.09;5015138;28;19929;-66
2023/02/12 04:14:57;;;;;;;;;;;;;;;7.05;100.00;103769.63;5028339;28;19929;-66
2023/02/12 04:17:24;;;;;;;;;;;;;;;7.01;100.00;103764.56;5012794;28;20777;-66
2023/02/12 04:19:57;;;;;;;;;;;;;;;7.02;100.00;103771.50;5015027;28;19925;-66
2023/02/12 04:22:44;;;;;;;;;;;;;;;7.03;100.00;103774.06;5027378;28;19925;-66
2023/02/12 04:25:22;;;;;;;;;;;;;;;7.07;100.00;103777.41;5021422;28;19926;-65
2023/02/12 04:27:49;;;;;;;;;;;;;;;7.09;100.00;103778.22;5015459;28;20406;-66
2023/02/12 04:30:18;;;;;;;;;;;;;;;7.10;100.00;103778.16;5003296;28;19935;-66
2023/02/12 04:32:51;;;;;;;;;;;;;;;7.10;100.00;103780.78;5014398;28;19929;-66
2023/02/12 04:35:21;;;;;;;;;;;;;;;7.08;100.00;103787.81;5011836;28;20377;-66
2023/02/12 04:37:53;;;;;;;;;;;;;;;7.11;100.00;103782.50;5013346;28;20287;-66
2023/02/12 04:40:20;;;;;;;;;;;;;;;7.12;100.00;103789.41;5011952;28;19925;-66
2023/02/12 04:42:51;;;;;;;;;;;;;;;7.15;100.00;103793.66;5023180;28;20696;-66
2023/02/12 04:45:28;;;;;;;;;;;;;;;7.16;100.00;103789.31;5016599;28;19921;-66
2023/02/12 04:47:55;;;;;;;;;;;;;;;7.20;100.00;103796.16;4999174;28;19925;-66
2023/02/12 04:50:21;;;;;;;;;;;;;;;7.22;100.00;103794.34;5002916;28;19929;-66
2023/02/12 04:52:47;;;;;;;;;;;;;;;7.23;100.00;103791.69;5006491;28;19925;-66
2023/02/12 04:55:14;;;;;;;;;;;;;;;7.25;100.00;103796.81;5011974;28;19936;-66
2023/02/12 04:57:41;;;;;;;;;;;;;;;7.27;100.00;103795.00;5016936;28;20247;-66
2023/02/12 05:00:08;;;;;;;;;;;;;;;7.27;100.00;103801.13;5014959;28;19924;-66
2023/02/12 05:02:35;;;;;;;;;;;;;;;7.31;100.00;103794.00;5022986;28;19925;-66
2023/02/12 05:05:01;;;;;;;;;;;;;;;7.31;100.00;103796.63;5011537;28;20301;-66
2023/02/12 05:07:27;;;;;;;;;;;;;;;7.35;100.00;103806.09;5024033;28;19929;-66
2023/02/12 05:09:54;;;;;;;;;;;;;;;7.36;100.00;103797.31;5005708;28;19925;-66
2023/02/12 05:12:20;;;;;;;;;;;;;;;7.35;100.00;103798.25;5004989;28;20429;-66
2023/02/12 05:14:47;;;;;;;;;;;;;;;7.34;100.00;103801.75;5008330;28;19925;-66
2023/02/12 05:17:13;;;;;;;;;;;;;;;7.35;100.00;103805.19;5010082;28;19925;-66
2023/02/12 05:19:39;;;;;;;;;;;;;;;7.36;100.00;103799.09;5005959;28;20321;-66
2023/02/12 05:22:05;;;;;;;;;;;;;;;7.37;100.00;103795.56;5021634;28;19921;-66
2023/02/12 05:24:32;;;;;;;;;;;;;;;7.36;100.00;103799.94;5028769;28;20437;-66
2023/02/12 05:26:58;;;;;;;;;;;;;;;7.31;100.00;103797.50;5015916;28;19925;-66
2023/02/12 05:29:24;;;;;;;;;;;;;;;7.33;100.00;103800.03;5030789;28;20215;-66
2023/02/12 05:31:51;;;;;;;;;;;;;;;7.37;100.00;103801.66;5015742;28;19979;-67
2023/02/12 05:34:17;;;;;;;;;;;;;;;7.33;100.00;103803.50;5008560;28;19925;-66
2023/02/12 05:36:44;;;;;;;;;;;;;;;7.34;100.00;103796.53;5008897;28;20308;-66
2023/02/12 05:39:10;;;;;;;;;;;;;;;7.37;100.00;103811.22;5011907;28;19967;-66
2023/02/12 05:41:37;;;;;;;;;;;;;;;7.40;100.00;103811.97;5007801;28;19925;-66
2023/02/12 05:44:03;;;;;;;;;;;;;;;7.38;100.00;103811.19;4993137;28;19927;-66
2023/02/12 05:46:30;;;;;;;;;;;;;;;7.42;100.00;103809.31;5029790;28;20355;-66
2023/02/12 05:48:56;;;;;;;;;;;;;;;7.45;100.00;103812.69;5007734;28;19975;-66
2023/02/12 05:51:24;;;;;;;;;;;;;;;7.48;100.00;103804.72;5015712;28;19925;-66
2023/02/12 05:53:52;;;;;;;;;;;;;;;7.47;100.00;103804.81;4989358;28;19929;-66
2023/02/12 05:56:20;;;;;;;;;;;;;;;7.52;100.00;103810.72;5008009;28;19983;-66
2023/02/12 05:58:48;;;;;;;;;;;;;;;7.53;100.00;103809.81;5014509;28;19936;-66
2023/02/12 06:01:17;;;;;;;;;;;;;;;7.54;100.00;103801.06;5002829;28;19925;-66
2023/02/12 06:03:43;;;;;;;;;;;;;;;7.55;100.00;103807.13;5011046;28;19932;-66
2023/02/12 06:06:09;;;;;;;;;;;;;;;7.55;100.00;103809.72;5009685;28;19951;-66
2023/02/12 06:08:36;;;;;;;;;;;;;;;7.56;100.00;103811.47;5002560;28;19921;-66
2023/02/12 06:11:07;;;;;;;;;;;;;;;7.57;100.00;103811.41;5013480;28;19921;-66
2023/02/12 06:13:33;;;;;;;;;;;;;;;7.59;100.00;103811.38;5001292;28;19932;-66
2023/02/12 06:16:00;;;;;;;;;;;;;;;7.60;100.00;103811.28;5019452;28;19952;-66
2023/02/12 06:18:26;;;;;;;;;;;;;;;7.61;100.00;103818.22;5003622;28;20422;-66
2023/02/12 06:20:53;;;;;;;;;;;;;;;7.63;100.00;103820.78;5010110;28;19925;-66
2023/02/12 06:23:23;;;;;;;;;;;;;;;7.60;100.00;103811.28;5007103;28;19976;-66
2023/02/12 06:25:54;;;;;;;;;;;;;;;7.53;100.00;103817.66;5017428;28;20333;-66
2023/02/12 06:28:21;;;;;;;;;;;;;;;7.53;100.00;103817.66;5015301;28;19921;-66
2023/02/12 06:30:47;;;;;;;;;;;;;;;7.57;100.00;103821.00;5006158;28;19984;-66
2023/02/12 06:33:14;;;;;;;;;;;;;;;7.59;100.00;103819.19;5014911;28;19959;-66
2023/02/12 06:35:40;;;;;;;;;;;;;;;7.59;100.00;103819.19;5001011;28;19933;-66
2023/02/12 06:38:07;;;;;;;;;;;;;;;7.60;100.00;103826.97;5001263;28;19925;-66
2023/02/12 06:40:33;;;;;;;;;;;;;;;7.60;100.00;103820.88;5015652;28;19925;-66
2023/02/12 06:42:59;;;;;;;;;;;;;;;7.59;100.00;103825.28;5021522;28;19952;-66
2023/02/12 06:45:26;;;;;;;;;;;;;;;7.57;100.00;103819.25;5022680;28;19925;-66
2023/02/12 06:47:52;;;;;;;;;;;;;;;7.57;100.00;103823.63;5003237;28;19928;-66
2023/02/12 06:50:19;;;;;;;;;;;;;;;7.57;100.00;103827.09;5001459;28;19965;-66
2023/02/12 06:52:45;;;;;;;;;;;;;;;7.58;100.00;103826.16;4996836;28;19933;-66
2023/02/12 06:55:11;;;;;;;;;;;;;;;7.59;100.00;103822.66;5007745;28;19925;-66
2023/02/12 06:57:38;;;;;;;;;;;;;;;7.65;100.00;103834.66;5007776;28;20305;-66
2023/02/12 07:00:04;;;;;;;;;;;;;;;7.67;100.00;103832.84;5008369;28;19929;-66
2023/02/12 07:02:31;;;;;;;;;;;;;;;7.69;100.00;103836.25;5009575;28;20432;-66
2023/02/12 07:04:57;;;;;;;;;;;;;;;7.70;100.00;103836.22;4993652;28;19968;-66
2023/02/12 07:07:23;;;;;;;;;;;;;;;7.69;100.00;103836.25;5003882;28;19937;-66
2023/02/12 07:09:50;;;;;;;;;;;;;;;7.70;100.00;103843.16;5003527;28;20008;-66
2023/02/12 07:12:16;;;;;;;;;;;;;;;7.69;100.00;103844.09;5009576;28;19932;-66
2023/02/12 07:14:43;;;;;;;;;;;;;;;7.67;100.00;103846.75;4995697;28;19926;-67
2023/02/12 07:17:09;;;;;;;;;;;;;;;7.65;100.00;103845.09;5011258;28;20400;-66
2023/02/12 07:19:36;;;;;;;;;;;;;;;7.64;100.00;103846.84;5002939;28;20195;-66
2023/02/12 07:22:02;;;;;;;;;;;;;;;7.64;100.00;103844.22;5010578;28;19931;-65
2023/02/12 07:24:28;;;;;;;;;;;;;;;7.64;100.00;103844.22;5016604;28;19925;-66
2023/02/12 07:26:55;;;;;;;;;;;;;;;7.66;100.00;103859.88;5006401;28;20016;-66
2023/02/12 07:29:21;;;;;;;;;;;;;;;7.66;100.00;103854.63;5010810;28;19925;-66
2023/02/12 07:31:47;;;;;;;;;;;;;;;7.68;100.00;103858.94;5007502;28;19932;-66
2023/02/12 07:34:14;;;;;;;;;;;;;;;7.70;100.00;103861.47;5009207;28;20278;-66
2023/02/12 07:36:41;;;;;;;;;;;;;;;7.70;100.00;103867.56;5011731;28;19925;-66
2023/02/12 07:39:09;;;;;;;;;;;;;;;7.74;100.00;103855.22;5008371;28;19925;-66
2023/02/12 07:41:36;;;;;;;;;;;;;;;7.77;100.00;103860.34;5008674;28;20386;-66
2023/02/12 07:44:06;;;;;;;;;;;;;;;7.79;100.00;103863.75;5012524;28;19926;-67
2023/02/12 07:46:33;;;;;;;;;;;;;;;7.80;100.00;103867.22;5022761;28;19925;-67
2023/02/12 07:49:03;;;;;;;;;;;;;;;7.79;100.00;103869.00;5000282;28;19957;-66
2023/02/12 07:51:31;;;;;;;;;;;;;;;7.81;100.00;103866.34;4998361;28;19921;-67
2023/02/12 07:53:59;;;;;;;;;;;;;;;7.81;100.00;103866.34;5026226;28;20297;-66
2023/02/12 07:56:29;;;;;;;;;;;;;;;7.82;100.00;103868.03;5003667;28;19925;-67
2023/02/12 07:58:56;;;;;;;;;;;;;;;7.85;100.00;103876.63;5008087;28;20345;-66
2023/02/12 08:01:28;;;;;;;;;;;;;;;7.88;100.00;103873.91;5006174;28;19924;-66
2023/02/12 08:03:57;;;;;;;;;;;;;;;7.91;100.00;103870.31;5008750;28;19932;-66
2023/02/12 08:06:25;;;;;;;;;;;;;;;7.92;100.00;103875.50;5004752;28;19929;-67
2023/02/12 08:08:54;;;;;;;;;;;;;;;7.93;100.00;103877.19;5021499;28;19933;-65
2023/02/12 08:11:21;;;;;;;;;;;;;;;7.95;100.00;103879.75;5020374;28;19959;-65
2023/02/12 08:13:48;;;;;;;;;;;;;;;7.96;100.00;103881.47;5000611;28;19925;-65
2023/02/12 08:16:16;;;;;;;;;;;;;;;8.00;100.00;103887.47;5012289;28;19921;-66
2023/02/12 08:18:43;;;;;;;;;;;;;;;8.02;100.00;103886.47;5023376;28;19925;-65
2023/02/12 08:21:10;;;;;;;;;;;;;;;8.03;100.00;103888.19;5026841;28;19928;-66
2023/02/12 08:23:37;;;;;;;;;;;;;;;8.06;100.00;103895.91;5028198;28;20023;-66
2023/02/12 08:26:05;;;;;;;;;;;;;;;8.07;100.00;103895.00;5057579;28;19924;-65
2023/02/12 08:28:31;;;;;;;;;;;;;;;8.11;100.00;103896.63;5044446;28;20374;-66
2023/02/12 08:31:05;;;;;;;;;;;;;;;8.15;100.00;103901.72;5027027;28;20004;-66
2023/02/12 08:33:32;;;;;;;;;;;;;;;8.18;100.00;103902.47;5034110;28;19927;-66
2023/02/12 08:36:01;;;;;;;;;;;;;;;8.21;100.00;103910.22;5033764;28;19925;-66
2023/02/12 08:38:28;;;;;;;;;;;;;;;8.25;100.00;103903.09;5039409;28;19931;-66
2023/02/12 08:40:54;;;;;;;;;;;;;;;8.29;100.00;103909.91;5020515;28;19925;-66
2023/02/12 08:43:21;;;;;;;;;;;;;;;8.29;100.00;103902.94;5021043;28;20056;-66
2023/02/12 08:45:47;;;;;;;;;;;;;;;8.34;100.00;103912.38;5035115;28;19932;-66
2023/02/12 08:48:13;;;;;;;;;;;;;;;8.36;100.00;103913.19;5029189;28;19956;-66
2023/02/12 08:50:40;;;;;;;;;;;;;;;8.38;100.00;103912.19;5035519;28;19924;-66
2023/02/12 08:53:06;;;;;;;;;;;;;;;8.41;100.00;103919.97;5032361;28;19924;-66
2023/02/12 08:55:33;;;;;;;;;;;;;;;8.46;100.00;103918.03;5031160;28;20285;-67
2023/02/12 08:58:00;;;;;;;;;;;;;;;8.49;100.00;103927.56;5018748;28;19932;-67
2023/02/12 09:00:26;;;;;;;;;;;;;;;8.50;100.00;103926.63;5031038;28;20024;-67
2023/02/12 09:02:52;;;;;;;;;;;;;;;8.55;100.00;103929.09;5032916;28;19932;-67
2023/02/12 09:05:19;;;;;;;;;;;;;;;8.56;100.00;103931.63;5020550;28;19925;-67
2023/02/12 09:07:45;;;;;;;;;;;;;;;8.58;100.00;103929.81;5029164;28;20031;-67
2023/02/12 09:10:11;;;;;;;;;;;;;;;8.58;100.00;103928.97;5016851;28;19928;-67
2023/02/12 09:12:38;;;;;;;;;;;;;;;8.62;100.00;103926.16;5036638;28;19924;-67
2023/02/12 09:15:04;;;;;;;;;;;;;;;8.67;100.00;103937.31;5020062;28;19925;-67
2023/02/12 09:17:30;;;;;;;;;;;;;;;8.71;100.00;103927.59;5030723;28;20404;-67
2023/02/12 09:19:57;;;;;;;;;;;;;;;8.73;100.00;103927.53;5024132;28;20176;-67
2023/02/12 09:22:23;;;;;;;;;;;;;;;8.76;100.00;103935.25;5027563;28;20512;-67
2023/02/12 09:24:49;;;;;;;;;;;;;;;8.78;100.00;103936.94;5042425;28;19928;-67
2023/02/12 09:27:16;;;;;;;;;;;;;;;8.76;100.00;103941.38;5021259;28;19975;-67
2023/02/12 09:29:42;;;;;;;;;;;;;;;8.77;100.00;103937.84;5028210;28;19921;-67
2023/02/12 09:32:09;;;;;;;;;;;;;;;8.79;100.00;103940.41;5028041;28;19975;-67
2023/02/12 09:34:35;;;;;;;;;;;;;;;8.70;100.00;103941.56;5032406;28;19931;-67
2023/02/12 09:37:01;;;;;;;;;;;;;;;8.76;100.00;103941.38;5021880;28;20007;-67
2023/02/12 09:39:29;;;;;;;;;;;;;;;8.81;100.00;103944.66;5018986;28;20023;-67
2023/02/12 09:41:58;;;;;;;;;;;;;;;8.84;100.00;103927.97;5036484;28;20024;-67
2023/02/12 09:44:24;;;;;;;;;;;;;;;8.88;100.00;103932.19;5026939;28;19928;-67
2023/02/12 09:46:58;;;;;;;;;;;;;;;8.91;100.00;103932.06;5031527;28;19924;-67
2023/02/12 09:49:24;;;;;;;;;;;;;;;8.93;100.00;103929.38;5020900;28;19928;-67
2023/02/12 09:51:53;;;;;;;;;;;;;;;8.96;100.00;103940.59;5024670;28;20373;-67
2023/02/12 09:54:22;;;;;;;;;;;;;;;8.99;100.00;103935.22;5025071;28;19921;-68
2023/02/12 09:56:51;;;;;;;;;;;;;;;8.97;100.00;103936.22;5002246;28;20330;-67
2023/02/12 09:59:41;;;;;;;;;;;;;;;9.01;100.00;103937.78;5033730;28;19925;-67
2023/02/12 10:02:15;;;;;;;;;;;;;;;9.06;100.00;103935.88;5016399;28;20337;-67
2023/02/12 10:04:43;;;;;;;;;;;;;;;9.12;100.00;103945.25;5029665;28;19932;-67
2023/02/12 10:07:43;;;;;;;;;;;;;;;9.13;100.00;103937.31;5031086;28;19929;-67
2023/02/12 10:10:28;;;;;;;;;;;;;;;9.18;100.00;103942.38;5016865;28;19974;-67
2023/02/12 10:13:11;;;;;;;;;;;;;;;9.18;100.00;103950.25;5031200;28;19925;-67
2023/02/12 10:15:55;;;;;;;;;;;;;;;9.21;100.00;103940.50;5022149;28;19928;-66
2023/02/12 10:18:36;;;;;;;;;;;;;;;9.22;100.00;103943.97;5028515;28;19929;-66
2023/02/12 10:21:02;;;;;;;;;;;;;;;9.23;100.00;103933.44;5024013;28;20312;-66
2023/02/12 10:23:38;;;;;;;;;;;;;;;9.21;100.00;103940.50;5038755;28;19936;-66
2023/02/12 10:26:13;;;;;;;;;;;;;;;9.29;100.00;103943.66;5031319;28;20382;-66
2023/02/12 10:28:41;;;;;;;;;;;;;;;9.33;100.00;103938.28;5034187;28;19921;-67
2023/02/12 10:31:15;;;;;;;;;;;;;;;9.34;100.00;103926.91;5023865;28;20232;-67
2023/02/12 10:33:43;;;;;;;;;;;;;;;9.39;100.00;103932.78;5027142;28;19972;-66
2023/02/12 10:36:22;;;;;;;;;;;;;;;9.41;100.00;103928.34;5025095;28;19947;-66
2023/02/12 10:38:51;;;;;;;;;;;;;;;9.38;100.00;103937.19;5037637;28;19929;-66
2023/02/12 10:41:17;;;;;;;;;;;;;;;9.43;100.00;103937.84;5028562;28;19924;-67
2023/02/12 10:43:44;;;;;;;;;;;;;;;9.47;100.00;103934.19;5033614;28;19958;-67
2023/02/12 10:46:14;;;;;;;;;;;;;;;9.51;100.00;103934.94;5026196;28;19932;-67
2023/02/12 10:48:42;;;;;;;;;;;;;;;9.53;100.00;103940.13;5026335;28;20400;-65
2023/02/12 10:51:21;;;;;;;;;;;;;;;9.45;100.00;103938.66;5032574;28;19920;-67
2023/02/12 10:53:48;;;;;;;;;;;;;;;9.39;100.00;103940.66;5020085;28;19925;-66
2023/02/12 10:56:17;;;;;;;;;;;;;;;9.32;100.00;103945.28;5025575;28;20000;-66
2023/02/12 10:58:49;;;;;;;;;;;;;;;9.35;100.00;103936.44;5013039;28;19925;-66
2023/02/12 11:01:19;;;;;;;;;;;;;;;9.36;100.00;103936.38;5024114;28;20007;-67
2023/02/12 11:03:45;;;;;;;;;;;;;;;9.35;100.00;103939.06;5028998;28;19924;-67
2023/02/12 11:06:16;;;;;;;;;;;;;;;9.20;100.00;103940.56;5024906;28;19968;-67
2023/02/12 11:08:43;;;;;;;;;;;;;;;9.21;100.00;103947.47;5033939;28;20385;-66
2023/02/12 11:11:11;;;;;;;;;;;;;;;9.10;100.00;103940.06;5032289;28;19972;-67
2023/02/12 11:13:39;;;;;;;;;;;;;;;9.14;100.00;103936.41;5023150;28;19925;-67
2023/02/12 11:16:07;;;;;;;;;;;;;;;9.16;100.00;103934.59;5029468;28;19932;-67
2023/02/12 11:18:35;;;;;;;;;;;;;;;9.11;100.00;103931.28;5042846;28;19928;-67
2023/02/12 11:21:06;;;;;;;;;;;;;;;9.14;100.00;103933.78;5028014;28;20038;-67
2023/02/12 11:23:34;;;;;;;;;;;;;;;9.11;100.00;103936.50;5033901;28;19929;-66
2023/02/12 11:26:02;;;;;;;;;;;;;;;9.11;100.00;103928.66;5030931;28;19948;-67
2023/02/12 11:28:30;;;;;;;;;;;;;;;9.03;99.91;103935.97;5021187;28;20531;-67
2023/02/12 11:31:16;;;;;;;;;;;;;;;9.05;100.00;103931.53;5031972;28;20004;-67
2023/02/12 11:33:44;;;;;;;;;;;;;;;9.06;100.00;103925.38;5026586;28;19920;-67
2023/02/12 11:36:14;;;;;;;;;;;;;;;9.09;100.00;103925.25;5042819;28;19931;-67
2023/02/12 11:38:48;;;;;;;;;;;;;;;9.13;100.00;103918.13;5024994;28;19976;-67
2023/02/12 11:41:27;;;;;;;;;;;;;;;9.15;98.99;103924.16;5021825;28;19925;-67
2023/02/12 11:43:53;;;;;;;;;;;;;;;9.24;100.00;103914.16;5030354;28;19925;-67
2023/02/12 11:46:22;;;;;;;;;;;;;;;9.30;100.00;103910.44;5024998;28;19932;-67
2023/02/12 11:48:50;;;;;;;;;;;;;;;9.35;100.00;103908.50;5031859;28;19936;-66
2023/02/12 11:51:28;;;;;;;;;;;;;;;9.44;100.00;103900.25;5030630;28;19929;-66
2023/02/12 11:53:56;;;;;;;;;;;;;;;9.53;100.00;103906.03;5035768;28;19928;-66
2023/02/12 11:56:22;;;;;;;;;;;;;;;9.53;100.00;103901.66;5030429;28;20440;-66
2023/02/12 11:58:50;;;;;;;;;;;;;;;9.56;100.00;103896.25;5039308;28;19931;-66
2023/02/12 12:01:23;;;;;;;;;;;;;;;9.62;100.00;103884.66;5042985;28;20403;-66
2023/02/12 12:03:59;;;;;;;;;;;;;;;9.71;100.00;103886.91;5020972;28;19927;-66
2023/02/12 12:06:37;;;;;;;;;;;;;;;9.72;99.40;103878.09;5024761;28;20040;-67
2023/02/12 12:09:06;;;;;;;;;;;;;;;9.79;100.00;103882.19;5029138;28;19925;-67
2023/02/12 12:11:47;;;;;;;;;;;;;;;9.86;100.00;103877.53;5036879;28;20312;-67
2023/02/12 12:14:29;;;;;;;;;;;;;;;9.94;100.00;103878.06;5046912;28;19931;-67
2023/02/12 12:20:16;;;;;;;;;;;;;;;10.09;100.00;103868.63;5017939;28;19921;-67
2023/02/12 12:23:15;;;;;;;;;;;;;;;10.14;100.00;103876.31;5026680;28;19929;-67
2023/02/12 12:25:50;;;;;;;;;;;;;;;10.19;100.00;103869.94;4994896;28;19925;-68
2023/02/12 12:28:35;;;;;;;;;;;;;;;10.23;99.39;103868.88;5032608;28;20445;-68
2023/02/12 12:31:21;;;;;;;;;;;;;;;10.21;93.42;103872.47;5005773;28;21085;-66
2023/02/12 12:33:52;;;;;;;;;;;;;;;10.26;96.20;103868.72;5029233;28;19924;-67
2023/02/12 12:36:21;;;;;;;;;;;;;;;10.22;92.16;103867.16;5037708;28;19974;-66
2023/02/12 12:39:00;;;;;;;;;;;;;;;10.24;96.64;103861.84;5033874;28;20366;-66
2023/02/12 12:41:34;;;;;;;;;;;;;;;10.18;89.39;103870.00;5036258;28;20015;-66
2023/02/12 12:44:00;;;;;;;;;;;;;;;10.06;87.85;103861.75;5027846;28;19933;-66
2023/02/12 12:46:38;;;;;;;;;;;;;;;10.10;93.99;103859.88;5045343;28;20010;-66
2023/02/12 12:49:05;;;;;;;;;;;;;;;10.06;92.75;103855.69;5034732;28;19931;-66
2023/02/12 12:52:00;;;;;;;;;;;;;;;10.13;93.64;103858.88;5021558;28;19925;-66